Time;durP1;ratioP1;P1;durP2;ratioP2;P2;SDS_P1;SDS_P2;PMS_P1;PMS_P2;Temp;Humidity;BMP_temperature;BMP_pressure;BME280_temperature;BME280_humidity;BME280_pressure;Samples;Min_cycle;Max_cycle;Signal;HPM_P1;HPM_P2
2024/01/24 00:00:01;;;;;;;3.22;0.70;;;;;;;7.17;100.00;100568.66;5985722;28;20030;-72
2024/01/24 00:02:56;;;;;;;0.75;0.40;;;;;;;7.20;100.00;100562.31;5980855;28;20027;-73
2024/01/24 00:05:52;;;;;;;0.60;0.27;;;;;;;7.33;100.00;100559.47;5986797;28;20050;-72
2024/01/24 00:08:48;;;;;;;1.33;0.30;;;;;;;7.42;100.00;100529.69;5983078;28;20503;-73
2024/01/24 00:11:43;;;;;;;1.02;0.50;;;;;;;7.47;100.00;100535.41;5994929;28;20039;-72
2024/01/24 00:14:39;;;;;;;2.00;0.50;;;;;;;7.53;100.00;100521.69;5983773;28;20042;-73
2024/01/24 00:17:34;;;;;;;0.83;0.57;;;;;;;7.65;100.00;100500.38;5979064;28;20023;-73
2024/01/24 00:20:29;;;;;;;0.50;0.30;;;;;;;7.75;100.00;100500.41;5981449;28;20295;-73
2024/01/24 00:23:25;;;;;;;1.97;0.50;;;;;;;7.86;100.00;100476.53;5980064;28;20274;-73
2024/01/24 00:26:20;;;;;;;2.00;0.40;;;;;;;8.08;100.00;100472.84;5983502;28;20699;-72
2024/01/24 00:29:15;;;;;;;1.80;0.67;;;;;;;8.18;100.00;100477.16;5980606;28;20409;-73
2024/01/24 00:32:10;;;;;;;1.70;0.60;;;;;;;8.32;100.00;100486.53;5986771;28;20047;-72
2024/01/24 00:35:06;;;;;;;1.40;0.40;;;;;;;8.42;100.00;100468.06;5987532;28;20090;-73
2024/01/24 00:38:02;;;;;;;1.50;0.60;;;;;;;8.40;100.00;100452.34;5982414;28;20291;-72
2024/01/24 00:40:57;;;;;;;0.70;0.50;;;;;;;8.52;100.00;100461.81;5990761;28;20038;-73
2024/01/24 00:43:52;;;;;;;1.30;0.70;;;;;;;8.62;100.00;100460.00;5986964;28;20082;-72
2024/01/24 00:46:47;;;;;;;1.93;0.50;;;;;;;8.66;100.00;100455.28;5986916;28;20124;-72
2024/01/24 00:49:43;;;;;;;2.27;0.87;;;;;;;8.67;100.00;100472.81;5982688;28;20054;-72
2024/01/24 00:52:38;;;;;;;1.60;0.60;;;;;;;8.69;100.00;100479.63;5984432;28;20034;-72
2024/01/24 00:55:33;;;;;;;2.00;0.60;;;;;;;8.76;100.00;100456.09;5981276;28;20046;-72
2024/01/24 00:58:29;;;;;;;0.87;0.60;;;;;;;8.79;100.00;100419.63;5991311;28;20118;-72
2024/01/24 01:01:24;;;;;;;1.60;0.60;;;;;;;8.86;100.00;100393.44;5982003;28;20763;-73
2024/01/24 01:04:19;;;;;;;1.53;0.60;;;;;;;8.88;100.00;100386.22;5987238;28;20055;-72
2024/01/24 01:07:15;;;;;;;0.73;0.40;;;;;;;8.90;100.00;100373.69;5990374;28;20287;-72
2024/01/24 01:10:10;;;;;;;1.92;0.47;;;;;;;9.02;100.00;100387.59;5983924;28;20042;-72
2024/01/24 01:13:05;;;;;;;1.88;0.60;;;;;;;9.05;100.00;100359.00;5989299;28;20058;-72
2024/01/24 01:16:01;;;;;;;2.23;0.50;;;;;;;9.02;100.00;100355.84;5980927;28;20031;-72
2024/01/24 01:18:56;;;;;;;0.50;0.40;;;;;;;9.12;100.00;100375.97;5984441;28;22005;-72
2024/01/24 01:21:51;;;;;;;1.47;0.97;;;;;;;9.12;100.00;100375.16;5986169;28;20373;-72
2024/01/24 01:24:47;;;;;;;0.70;0.30;;;;;;;9.18;100.00;100362.19;5989494;28;20039;-72
2024/01/24 01:27:43;;;;;;;0.73;0.35;;;;;;;9.23;100.00;100375.81;5964363;28;20030;-71
2024/01/24 01:30:38;;;;;;;2.10;0.50;;;;;;;9.30;100.00;100371.59;5984634;28;20046;-72
2024/01/24 01:33:33;;;;;;;1.93;0.30;;;;;;;9.36;100.00;100396.63;5989494;28;20137;-72
2024/01/24 01:36:29;;;;;;;1.47;0.50;;;;;;;9.44;100.00;100379.03;5982148;28;20430;-72
2024/01/24 01:39:24;;;;;;;1.73;0.50;;;;;;;9.45;100.00;100388.66;5987550;28;20031;-72
2024/01/24 01:42:19;;;;;;;1.73;0.40;;;;;;;9.50;100.00;100367.03;5987622;28;20065;-72
2024/01/24 01:45:15;;;;;;;1.90;0.60;;;;;;;9.51;100.00;100364.22;5974704;28;20035;-72
2024/01/24 01:48:11;;;;;;;1.00;0.30;;;;;;;9.55;100.00;100378.84;5975037;28;20045;-73
2024/01/24 01:51:06;;;;;;;4.57;0.63;;;;;;;9.63;100.00;100367.50;5970686;28;20468;-72
2024/01/24 01:54:02;;;;;;;3.03;0.70;;;;;;;9.78;100.00;100359.91;5994930;28;20071;-72
2024/01/24 01:56:57;;;;;;;1.05;0.50;;;;;;;9.81;100.00;100362.25;5979912;28;20058;-72
2024/01/24 01:59:53;;;;;;;1.50;0.53;;;;;;;9.88;100.00;100350.91;5992023;28;20027;-72
2024/01/24 02:02:48;;;;;;;2.07;0.80;;;;;;;9.94;100.00;100354.78;5981635;28;20031;-73
2024/01/24 02:05:44;;;;;;;2.13;0.90;;;;;;;9.95;100.00;100356.41;5970620;28;20039;-72
2024/01/24 02:08:40;;;;;;;3.90;0.90;;;;;;;9.89;100.00;100357.03;5978891;28;20542;-73
2024/01/24 02:11:35;;;;;;;2.00;0.73;;;;;;;9.78;100.00;100346.66;5984109;28;20037;-73
2024/01/24 02:14:31;;;;;;;2.53;0.77;;;;;;;9.83;100.00;100342.59;5983381;28;20024;-73
2024/01/24 02:17:26;;;;;;;2.23;1.00;;;;;;;9.80;100.00;100347.34;5984436;28;20039;-73
2024/01/24 02:20:22;;;;;;;1.37;0.50;;;;;;;9.70;100.00;100333.34;5992744;28;20039;-73
2024/01/24 02:23:18;;;;;;;0.93;0.60;;;;;;;9.64;100.00;100321.53;5966396;28;20030;-71
2024/01/24 02:26:15;;;;;;;1.17;0.57;;;;;;;9.61;100.00;100318.34;5976659;28;20047;-71
2024/01/24 02:29:11;;;;;;;2.05;0.77;;;;;;;9.64;100.00;100321.53;5977203;28;20035;-72
2024/01/24 02:32:07;;;;;;;2.85;0.73;;;;;;;9.65;100.00;100327.66;5974792;28;20063;-71
2024/01/24 02:35:02;;;;;;;2.07;0.80;;;;;;;9.58;100.00;100301.78;5982752;28;20059;-72
2024/01/24 02:37:57;;;;;;;1.30;0.73;;;;;;;9.69;100.00;100311.31;5974856;28;20054;-72
2024/01/24 02:40:53;;;;;;;1.57;0.60;;;;;;;9.53;100.00;100282.88;5991986;28;20054;-72
2024/01/24 02:43:48;;;;;;;1.53;0.80;;;;;;;9.65;100.00;100311.78;5988670;28;20019;-73
2024/01/24 02:46:44;;;;;;;2.80;0.93;;;;;;;9.72;100.00;100307.53;5987450;28;20402;-72
2024/01/24 02:49:40;;;;;;;2.42;0.95;;;;;;;9.53;100.00;100282.88;5977843;28;20270;-72
2024/01/24 02:52:35;;;;;;;1.38;0.75;;;;;;;9.69;100.00;100284.84;5981003;28;20169;-72
2024/01/24 02:55:31;;;;;;;3.00;1.10;;;;;;;9.71;100.00;100284.69;5994825;28;20035;-73
2024/01/24 02:58:26;;;;;;;1.67;0.83;;;;;;;9.80;100.00;100291.72;5977237;28;20035;-72
2024/01/24 03:01:21;;;;;;;2.60;1.10;;;;;;;9.73;100.00;100280.09;5996055;28;20038;-73
2024/01/24 03:04:17;;;;;;;2.43;1.00;;;;;;;9.72;100.00;100281.06;5988325;28;20027;-72
2024/01/24 03:07:12;;;;;;;2.50;1.10;;;;;;;9.82;100.00;100276.53;5983508;28;20299;-73
2024/01/24 03:10:10;;;;;;;2.97;1.00;;;;;;;9.83;100.00;100283.50;5976825;28;20038;-73
2024/01/24 03:13:06;;;;;;;2.03;1.00;;;;;;;9.88;100.00;100291.81;5992571;28;20313;-73
2024/01/24 03:16:01;;;;;;;2.30;1.03;;;;;;;9.87;100.00;100283.03;5976333;28;20036;-73
2024/01/24 03:18:56;;;;;;;1.93;0.97;;;;;;;9.91;100.00;100265.03;5974722;28;20057;-73
2024/01/24 03:21:52;;;;;;;2.13;1.30;;;;;;;9.93;100.00;100268.34;5974040;28;20024;-72
2024/01/24 03:24:47;;;;;;;2.63;0.98;;;;;;;9.91;100.00;100251.78;5974815;28;20039;-74
2024/01/24 03:27:43;;;;;;;2.10;1.07;;;;;;;9.90;100.00;100239.50;5976162;28;20089;-73
2024/01/24 03:30:38;;;;;;;1.43;0.90;;;;;;;10.00;100.00;100258.81;5957881;28;20125;-72
2024/01/24 03:33:36;;;;;;;1.83;1.00;;;;;;;10.02;100.00;100235.66;5977336;28;20491;-74
2024/01/24 03:36:31;;;;;;;2.47;1.30;;;;;;;10.02;100.00;100230.34;5969922;28;20027;-73
2024/01/24 03:39:27;;;;;;;2.17;1.03;;;;;;;10.05;100.00;100230.03;5974237;28;20035;-72
2024/01/24 03:42:23;;;;;;;2.85;1.23;;;;;;;10.03;100.00;100227.53;5976331;28;20028;-73
2024/01/24 03:45:19;;;;;;;2.85;1.02;;;;;;;10.10;100.00;100222.47;5976684;28;20042;-73
2024/01/24 03:48:14;;;;;;;1.30;0.70;;;;;;;10.15;100.00;100210.44;5986903;28;20391;-73
2024/01/24 03:51:11;;;;;;;2.33;1.10;;;;;;;10.20;100.00;100217.06;5963631;28;20287;-73
2024/01/24 03:54:06;;;;;;;3.42;0.82;;;;;;;10.21;100.00;100214.28;5992843;28;20928;-74
2024/01/24 03:57:01;;;;;;;2.67;1.00;;;;;;;10.27;100.00;100197.78;5984945;28;20043;-73
2024/01/24 03:59:57;;;;;;;1.83;0.87;;;;;;;10.27;100.00;100184.53;5987508;28;20062;-73
2024/01/24 04:02:52;;;;;;;2.20;1.20;;;;;;;10.32;100.00;100184.03;5987484;28;20069;-74
2024/01/24 04:05:47;;;;;;;2.30;1.37;;;;;;;10.43;100.00;100197.88;5985250;28;20033;-72
2024/01/24 04:08:44;;;;;;;2.23;0.97;;;;;;;10.54;100.00;100178.19;5970016;28;20042;-73
2024/01/24 04:11:39;;;;;;;2.20;1.15;;;;;;;10.67;100.00;100184.72;5984763;28;20086;-72
2024/01/24 04:14:34;;;;;;;1.93;1.20;;;;;;;10.79;100.00;100174.63;5994783;28;20043;-73
2024/01/24 04:17:30;;;;;;;3.37;1.30;;;;;;;10.75;100.00;100163.53;5978377;28;20031;-73
2024/01/24 04:20:26;;;;;;;2.67;1.10;;;;;;;10.82;100.00;100166.34;5991846;28;20632;-73
2024/01/24 04:23:22;;;;;;;3.17;1.23;;;;;;;10.95;100.00;100171.22;5992090;28;20040;-74
2024/01/24 04:26:20;;;;;;;2.73;1.40;;;;;;;11.10;100.00;100149.19;5983285;28;20057;-74
2024/01/24 04:29:16;;;;;;;2.65;1.40;;;;;;;11.12;100.00;100159.63;5990013;28;20300;-74
2024/01/24 04:32:12;;;;;;;2.35;1.55;;;;;;;11.22;100.00;100174.41;5982316;28;20113;-73
2024/01/24 04:35:07;;;;;;;2.63;1.13;;;;;;;11.31;100.00;100141.59;5994240;28;20041;-73
2024/01/24 04:38:03;;;;;;;5.05;1.40;;;;;;;11.45;100.00;100169.31;5987908;28;20035;-73
2024/01/24 04:40:58;;;;;;;3.53;1.52;;;;;;;11.56;100.00;100155.69;5987179;28;20538;-74
2024/01/24 04:43:54;;;;;;;6.17;1.70;;;;;;;11.38;100.00;100147.06;5979182;28;20046;-72
2024/01/24 04:46:49;;;;;;;5.17;1.60;;;;;;;11.29;100.00;100161.31;5985543;28;20031;-73
2024/01/24 04:49:44;;;;;;;3.75;1.35;;;;;;;11.13;100.00;100138.25;5992702;28;20286;-74
2024/01/24 04:52:40;;;;;;;2.60;1.60;;;;;;;11.06;100.00;100120.50;5985910;28;20036;-73
2024/01/24 04:55:35;;;;;;;3.80;1.50;;;;;;;11.16;100.00;100142.41;5990255;28;20108;-74
2024/01/24 04:58:30;;;;;;;2.97;1.50;;;;;;;11.24;100.00;100143.25;5983202;28;20394;-72
2024/01/24 05:01:26;;;;;;;3.30;1.40;;;;;;;11.24;100.00;100153.03;5992937;28;20300;-73
2024/01/24 05:04:21;;;;;;;4.63;1.90;;;;;;;11.13;100.00;100132.13;5973170;28;20587;-72
2024/01/24 05:07:16;;;;;;;3.20;1.50;;;;;;;11.17;100.00;100130.81;5968708;28;20554;-74
2024/01/24 05:10:12;;;;;;;2.33;1.33;;;;;;;11.16;100.00;100123.81;5972716;28;20463;-74
2024/01/24 05:13:07;;;;;;;2.60;1.40;;;;;;;11.12;100.00;100125.13;5968706;28;20038;-74
2024/01/24 05:16:03;;;;;;;4.28;1.38;;;;;;;11.16;100.00;100153.03;5970263;28;20036;-73
2024/01/24 05:18:58;;;;;;;4.25;1.48;;;;;;;11.12;100.00;100255.16;5970028;28;20126;-72
2024/01/24 05:21:54;;;;;;;7.10;1.17;;;;;;;9.70;100.00;100277.75;5970568;28;20031;-71
2024/01/24 05:24:49;;;;;;;13.40;1.63;;;;;;;8.90;100.00;100241.47;5985375;28;20053;-70
2024/01/24 05:27:44;;;;;;;6.70;1.53;;;;;;;8.68;100.00;100204.84;5983132;28;20059;-71
2024/01/24 05:30:41;;;;;;;8.97;2.20;;;;;;;8.75;100.00;100219.97;5976061;28;20101;-71
2024/01/24 05:33:36;;;;;;;6.53;2.45;;;;;;;8.67;100.00;100201.38;5984332;28;20035;-72
2024/01/24 05:36:31;;;;;;;8.83;1.30;;;;;;;8.97;100.00;100206.38;5992350;28;20039;-70
2024/01/24 05:39:27;;;;;;;3.17;0.80;;;;;;;9.22;100.00;100225.97;5992153;28;20026;-71
2024/01/24 05:42:22;;;;;;;3.00;0.80;;;;;;;9.34;100.00;100240.66;5995571;28;20031;-71
2024/01/24 05:45:18;;;;;;;3.88;0.73;;;;;;;9.36;100.00;100265.16;5972805;28;20058;-71
2024/01/24 05:48:14;;;;;;;7.20;0.70;;;;;;;9.35;100.00;100263.47;5982375;28;20035;-71
2024/01/24 05:51:10;;;;;;;2.85;0.93;;;;;;;9.38;100.00;100246.47;5982455;28;20088;-71
2024/01/24 05:54:06;;;;;;;5.85;0.80;;;;;;;9.45;100.00;100256.34;5980226;28;20122;-68
2024/01/24 05:57:01;;;;;;;4.23;0.90;;;;;;;9.43;100.00;100276.81;5986446;28;20047;-70
2024/01/24 05:59:56;;;;;;;3.13;0.80;;;;;;;9.46;100.00;100257.97;5982932;28;20030;-69
2024/01/24 06:02:51;;;;;;;4.67;1.00;;;;;;;9.53;100.00;100277.59;5991166;28;20031;-70
2024/01/24 06:05:47;;;;;;;1.10;0.70;;;;;;;9.58;100.00;100285.91;5978810;28;20028;-71
2024/01/24 06:08:44;;;;;;;2.27;0.63;;;;;;;9.51;100.00;100273.44;5976407;28;20038;-70
2024/01/24 06:11:39;;;;;;;4.38;0.77;;;;;;;9.61;100.00;100295.38;5988622;28;20082;-70
2024/01/24 06:14:34;;;;;;;3.13;0.80;;;;;;;9.58;100.00;100291.19;5972113;28;20483;-71
2024/01/24 06:17:29;;;;;;;7.67;0.83;;;;;;;9.61;100.00;100247.72;5987600;28;20050;-72
2024/01/24 06:20:25;;;;;;;8.07;1.63;;;;;;;9.85;100.00;100287.66;5983808;28;20035;-70
2024/01/24 06:23:20;;;;;;;7.13;1.23;;;;;;;9.86;100.00;100281.38;5989636;28;20266;-70
2024/01/24 06:26:15;;;;;;;2.27;0.87;;;;;;;9.86;100.00;100312.31;5994331;28;20070;-71
2024/01/24 06:29:11;;;;;;;4.07;0.83;;;;;;;9.86;100.00;100289.31;5977812;28;20059;-71
2024/01/24 06:32:06;;;;;;;4.53;1.37;;;;;;;9.89;100.00;100299.59;5994513;28;20031;-70
2024/01/24 06:35:02;;;;;;;4.28;0.75;;;;;;;9.89;100.00;100293.47;5988028;28;20038;-70
2024/01/24 06:37:57;;;;;;;3.30;0.57;;;;;;;9.99;100.00;100299.53;5983869;28;20126;-70
2024/01/24 06:40:52;;;;;;;2.30;0.83;;;;;;;9.97;100.00;100328.00;5988312;28;20030;-70
2024/01/24 06:43:48;;;;;;;9.97;1.47;;;;;;;9.83;100.00;100341.75;5993149;28;20043;-70
2024/01/24 06:46:44;;;;;;;5.73;1.17;;;;;;;9.65;100.00;100332.97;5989481;28;20345;-69
2024/01/24 06:49:39;;;;;;;3.53;0.73;;;;;;;9.52;100.00;100317.41;5989531;28;20740;-69
2024/01/24 06:52:34;;;;;;;6.80;1.00;;;;;;;9.51;100.00;100351.00;5990937;28;20047;-69
2024/01/24 06:55:30;;;;;;;7.60;1.10;;;;;;;9.46;100.00;100340.03;5992022;28;20053;-70
2024/01/24 06:58:25;;;;;;;5.50;1.00;;;;;;;9.36;100.00;100320.72;5987918;28;20039;-69
2024/01/24 07:01:20;;;;;;;4.57;1.00;;;;;;;9.33;100.00;100328.13;5981291;28;20441;-71
2024/01/24 07:04:16;;;;;;;6.60;1.43;;;;;;;9.31;100.00;100349.44;5992319;28;20486;-70
2024/01/24 07:07:11;;;;;;;7.17;1.30;;;;;;;9.47;100.00;100356.75;5984632;28;20114;-70
2024/01/24 07:10:10;;;;;;;7.00;1.40;;;;;;;9.57;100.00;100345.13;5986741;28;20281;-71
2024/01/24 07:13:06;;;;;;;7.07;1.30;;;;;;;9.71;100.00;100356.16;5975263;28;20142;-70
2024/01/24 07:16:04;;;;;;;9.73;1.67;;;;;;;9.73;100.00;100344.44;5986036;28;20042;-71
2024/01/24 07:18:59;;;;;;;8.60;1.95;;;;;;;9.74;100.00;100374.41;5975125;28;20027;-69
2024/01/24 07:21:54;;;;;;;12.40;1.70;;;;;;;9.65;100.00;100377.97;5977986;28;20057;-70
2024/01/24 07:24:49;;;;;;;14.20;1.30;;;;;;;9.57;100.00;100337.16;5978208;28;20036;-69
2024/01/24 07:27:45;;;;;;;6.47;0.97;;;;;;;9.53;100.00;100383.47;5977453;28;20495;-70
2024/01/24 07:30:40;;;;;;;9.10;1.83;;;;;;;9.49;100.00;100397.97;5970880;28;20033;-70
2024/01/24 07:33:38;;;;;;;8.38;1.63;;;;;;;9.49;100.00;100432.38;5985295;28;20041;-71
2024/01/24 07:36:33;;;;;;;11.60;2.25;;;;;;;9.51;100.00;100419.81;5994341;28;20576;-70
2024/01/24 07:39:28;;;;;;;16.43;2.17;;;;;;;9.32;100.00;100398.72;5988972;28;20035;-70
2024/01/24 07:42:23;;;;;;;11.20;2.30;;;;;;;9.32;100.00;100422.53;5986659;28;20030;-70
2024/01/24 07:45:19;;;;;;;6.27;1.67;;;;;;;9.41;100.00;100410.25;5991118;28;20101;-71
2024/01/24 07:48:14;;;;;;;11.80;2.50;;;;;;;9.50;100.00;100436.69;5988485;28;20034;-70
2024/01/24 07:51:10;;;;;;;9.65;1.95;;;;;;;9.41;100.00;100436.72;5990439;28;20043;-71
2024/01/24 07:54:05;;;;;;;14.90;1.70;;;;;;;9.51;100.00;100442.81;5984605;28;20617;-69
2024/01/24 07:57:03;;;;;;;12.33;2.37;;;;;;;9.50;100.00;100447.28;5958743;28;20082;-69
2024/01/24 07:59:58;;;;;;;9.25;1.85;;;;;;;9.64;100.00;100458.38;5976819;28;20290;-70
2024/01/24 08:02:54;;;;;;;11.13;2.97;;;;;;;9.63;100.00;100459.31;5988222;28;20058;-71
2024/01/24 08:05:49;;;;;;;15.00;1.90;;;;;;;9.62;100.00;100468.28;5987317;28;20088;-71
2024/01/24 08:08:44;;;;;;;12.93;2.27;;;;;;;9.32;100.00;100467.53;5962125;29;20044;-71
2024/01/24 08:11:40;;;;;;;10.93;2.40;;;;;;;9.20;100.00;100487.19;5979444;28;20103;-71
2024/01/24 08:14:35;;;;;;;12.32;1.70;;;;;;;9.03;100.00;100477.34;5970863;28;20039;-70
2024/01/24 08:17:31;;;;;;;18.33;2.60;;;;;;;8.88;100.00;100490.19;5977563;28;20043;-70
2024/01/24 08:20:27;;;;;;;14.90;2.05;;;;;;;8.93;100.00;100487.09;5990480;28;20023;-69
2024/01/24 08:23:22;;;;;;;13.15;2.10;;;;;;;8.87;100.00;100480.56;5967801;28;20543;-72
2024/01/24 08:26:17;;;;;;;16.17;2.07;;;;;;;8.84;100.00;100461.50;5981407;28;20058;-71
2024/01/24 08:29:13;;;;;;;15.20;2.23;;;;;;;8.90;100.00;100469.72;5982639;28;20278;-70
2024/01/24 08:32:08;;;;;;;17.27;2.57;;;;;;;8.98;100.00;100488.34;5986692;28;20286;-69
2024/01/24 08:35:03;;;;;;;12.07;3.63;;;;;;;9.02;100.00;100473.06;5974121;28;20026;-71
2024/01/24 08:37:59;;;;;;;14.68;2.25;;;;;;;9.24;100.00;100488.56;5987033;28;20035;-73
2024/01/24 08:40:54;;;;;;;12.63;2.80;;;;;;;9.28;100.00;100503.19;5981282;28;20037;-73
2024/01/24 08:43:49;;;;;;;12.17;2.40;;;;;;;9.46;100.00;100482.94;5978283;28;20023;-73
2024/01/24 08:46:45;;;;;;;18.92;2.75;;;;;;;9.69;100.00;100488.72;5976958;28;20310;-72
2024/01/24 08:49:40;;;;;;;20.58;3.08;;;;;;;9.81;100.00;100503.41;5985800;28;20066;-71
2024/01/24 08:52:36;;;;;;;21.27;3.00;;;;;;;9.88;100.00;100501.03;5991034;28;20046;-71
2024/01/24 08:55:31;;;;;;;12.20;2.37;;;;;;;9.96;100.00;100523.16;5972239;28;20038;-72
2024/01/24 08:58:26;;;;;;;14.10;2.13;;;;;;;10.03;100.00;100516.28;5986450;28;20401;-71
2024/01/24 09:01:23;;;;;;;15.40;2.63;;;;;;;10.05;100.00;100518.81;5972378;28;20034;-71
2024/01/24 09:04:18;;;;;;;9.15;2.40;;;;;;;10.04;100.00;100540.97;5977348;28;20030;-70
2024/01/24 09:07:14;;;;;;;18.88;2.80;;;;;;;10.12;100.00;100533.09;5983461;28;20085;-70
2024/01/24 09:10:10;;;;;;;11.45;1.75;;;;;;;10.24;100.00;100541.72;5980032;28;20050;-70
2024/01/24 09:13:06;;;;;;;14.23;2.40;;;;;;;10.24;100.00;100531.97;5979240;28;20489;-71
2024/01/24 09:16:01;;;;;;;17.95;3.17;;;;;;;10.29;100.00;100548.25;5979370;28;20438;-71
2024/01/24 09:18:57;;;;;;;14.30;2.03;;;;;;;10.35;100.00;100558.28;5975463;28;20027;-72
2024/01/24 09:21:52;;;;;;;11.23;3.23;;;;;;;10.31;100.00;100546.28;5970161;28;20090;-71
2024/01/24 09:24:47;;;;;;;21.83;2.80;;;;;;;10.27;100.00;100562.66;5981321;28;20034;-71
2024/01/24 09:27:43;;;;;;;18.97;2.83;;;;;;;10.21;100.00;100549.97;5980149;28;20023;-71
2024/01/24 09:30:39;;;;;;;14.53;2.47;;;;;;;10.22;100.00;100584.25;5969645;28;20032;-71
2024/01/24 09:33:34;;;;;;;21.83;3.30;;;;;;;10.16;100.00;100566.31;5986907;28;20396;-71
2024/01/24 09:36:30;;;;;;;19.93;2.67;;;;;;;10.19;100.00;100568.69;5978278;28;20039;-71
2024/01/24 09:39:25;;;;;;;16.95;2.80;;;;;;;10.24;100.00;100590.28;5986532;28;20614;-72
2024/01/24 09:42:25;;;;;;;15.80;3.33;;;;;;;10.33;100.00;100552.25;5975630;28;20074;-71
2024/01/24 09:45:22;;;;;;;12.80;2.05;;;;;;;10.44;100.00;100553.88;5980377;28;20114;-72
2024/01/24 09:48:18;;;;;;;20.33;2.90;;;;;;;10.43;100.00;100553.06;5976729;28;20039;-71
2024/01/24 09:51:13;;;;;;;18.33;3.70;;;;;;;10.40;100.00;100558.66;5961096;28;20026;-71
2024/01/24 09:54:08;;;;;;;14.32;2.00;;;;;;;10.42;100.00;100577.91;5974862;28;20383;-71
2024/01/24 09:57:06;;;;;;;13.43;2.47;;;;;;;10.40;100.00;100579.88;5983600;28;20114;-71
2024/01/24 10:00:02;;;;;;;18.10;2.40;;;;;;;10.27;100.00;100589.16;5986887;28;20133;-71
2024/01/24 10:02:58;;;;;;;11.35;2.35;;;;;;;9.95;100.00;100602.75;5982429;28;20467;-71
2024/01/24 10:05:53;;;;;;;12.40;2.45;;;;;;;9.55;100.00;100577.38;5972844;28;20039;-70
2024/01/24 10:08:49;;;;;;;15.23;2.50;;;;;;;9.37;100.00;100587.03;5965014;28;20179;-70
2024/01/24 10:11:44;;;;;;;20.93;3.27;;;;;;;9.36;100.00;100605.69;5984183;28;20034;-70
2024/01/24 10:14:41;;;;;;;29.07;3.47;;;;;;;9.38;100.00;100593.13;5996043;28;20069;-70
2024/01/24 10:17:39;;;;;;;15.63;2.70;;;;;;;9.54;100.00;100596.88;5983111;28;20098;-71
2024/01/24 10:20:34;;;;;;;24.40;3.10;;;;;;;9.62;100.00;100625.28;5974550;28;20035;-69
2024/01/24 10:23:30;;;;;;;16.47;2.80;;;;;;;9.56;100.00;100633.81;5985883;28;20067;-70
2024/01/24 10:26:26;;;;;;;11.32;3.05;;;;;;;9.33;100.00;100627.13;5997633;28;20364;-71
2024/01/24 10:29:21;;;;;;;14.65;2.80;;;;;;;9.30;100.00;100662.63;5982738;28;20089;-70
2024/01/24 10:32:17;;;;;;;14.50;2.83;;;;;;;9.44;100.00;100654.28;5987861;28;20042;-70
2024/01/24 10:35:12;;;;;;;14.27;2.20;;;;;;;9.40;100.00;100663.47;5984653;28;20041;-70
2024/01/24 10:38:11;;;;;;;21.90;2.70;;;;;;;9.16;100.00;100670.97;5987649;28;20122;-69
2024/01/24 10:41:09;;;;;;;12.80;2.88;;;;;;;8.94;100.00;100655.38;5976699;28;20081;-71
2024/01/24 10:44:09;;;;;;;10.98;2.38;;;;;;;8.94;100.00;100658.03;5970525;28;20078;-71
2024/01/24 10:47:05;;;;;;;12.35;2.50;;;;;;;8.95;100.00;100647.31;5966732;28;20094;-69
2024/01/24 10:50:06;;;;;;;11.55;2.00;;;;;;;9.20;100.00;100645.94;5979820;28;20095;-70
2024/01/24 10:53:02;;;;;;;12.38;2.50;;;;;;;9.33;100.00;100653.59;5991560;28;20042;-70
2024/01/24 10:55:57;;;;;;;22.20;2.88;;;;;;;9.49;100.00;100652.06;5978841;28;20044;-71
2024/01/24 10:58:53;;;;;;;17.85;2.45;;;;;;;9.67;100.00;100656.63;5987820;28;20035;-70
2024/01/24 11:01:48;;;;;;;12.20;2.60;;;;;;;9.77;100.00;100647.69;5966059;28;20034;-72
2024/01/24 11:04:45;;;;;;;14.05;2.53;;;;;;;9.72;100.00;100649.09;5974238;28;20502;-70
2024/01/24 11:07:47;;;;;;;13.90;2.47;;;;;;;9.87;100.00;100655.59;5964889;28;20523;-71
2024/01/24 11:10:43;;;;;;;14.27;3.65;;;;;;;9.92;100.00;100677.22;5974275;28;20031;-71
2024/01/24 11:13:40;;;;;;;14.43;3.60;;;;;;;9.89;100.00;100682.81;5990405;28;20390;-72
2024/01/24 11:16:37;;;;;;;20.70;2.67;;;;;;;9.82;100.00;100669.28;5984661;28;20037;-73
2024/01/24 11:19:32;;;;;;;20.83;2.63;;;;;;;9.75;100.00;100681.44;5985904;28;20066;-71
2024/01/24 11:22:27;;;;;;;18.17;3.07;;;;;;;9.68;100.00;100674.19;5985793;28;20043;-72
2024/01/24 11:25:37;;;;;;;19.87;3.40;;;;;;;9.80;100.00;100670.41;5973700;28;20278;-71
2024/01/24 11:28:32;;;;;;;16.10;2.33;;;;;;;9.91;100.00;100675.56;5984442;28;20031;-71
2024/01/24 11:31:42;;;;;;;15.85;3.30;;;;;;;9.92;100.00;100685.19;5977958;28;20079;-72
2024/01/24 11:34:40;;;;;;;15.82;3.88;;;;;;;9.91;100.00;100694.94;5981565;28;20058;-72
2024/01/24 11:37:35;;;;;;;16.45;2.40;;;;;;;9.91;100.00;100704.69;5985788;28;20043;-71
2024/01/24 11:40:35;;;;;;;21.17;2.97;;;;;;;9.94;100.00;100683.22;5986741;28;20046;-71
2024/01/24 11:43:32;;;;;;;17.20;3.47;;;;;;;9.88;100.00;100691.72;5962034;28;20098;-71
2024/01/24 11:46:27;;;;;;;13.32;2.47;;;;;;;9.99;100.00;100694.22;5972750;28;20043;-71
2024/01/24 11:49:24;;;;;;;19.90;3.20;;;;;;;9.91;100.00;100704.69;5965862;28;20115;-71
2024/01/24 11:52:22;;;;;;;15.63;2.22;;;;;;;10.06;100.00;100703.25;5984433;28;20031;-72
2024/01/24 11:55:17;;;;;;;18.67;2.20;;;;;;;9.98;100.00;100722.50;5987716;28;20030;-72
2024/01/24 11:58:13;;;;;;;16.10;3.13;;;;;;;10.06;100.00;100735.03;5971914;28;20556;-71
2024/01/24 12:01:09;;;;;;;18.67;3.60;;;;;;;9.96;100.00;100736.88;5982567;28;20592;-72
2024/01/24 12:04:04;;;;;;;13.73;2.40;;;;;;;10.01;100.00;100722.22;5985013;28;20048;-72
2024/01/24 12:07:00;;;;;;;17.67;2.20;;;;;;;10.01;100.00;100730.19;5980792;28;20499;-71
2024/01/24 12:09:56;;;;;;;20.77;3.40;;;;;;;10.00;100.00;100709.16;5977292;28;20023;-72
2024/01/24 12:12:51;;;;;;;17.97;2.10;;;;;;;9.99;100.00;100755.16;5983947;28;20055;-71
2024/01/24 12:15:47;;;;;;;11.77;2.37;;;;;;;9.91;100.00;100736.47;5957687;28;20318;-71
2024/01/24 12:18:42;;;;;;;16.88;3.13;;;;;;;9.99;100.00;100702.16;5982500;28;21941;-70
2024/01/24 12:21:38;;;;;;;17.20;3.00;;;;;;;9.95;100.00;100737.84;5980396;28;20177;-71
2024/01/24 12:24:37;;;;;;;15.82;2.38;;;;;;;9.91;100.00;100747.06;5980930;28;20033;-71
2024/01/24 12:27:32;;;;;;;11.45;2.40;;;;;;;9.94;100.00;100754.72;5961824;28;20038;-70
2024/01/24 12:30:32;;;;;;;19.93;2.43;;;;;;;9.99;100.00;100771.88;5968623;28;20491;-70
2024/01/24 12:33:31;;;;;;;13.73;2.50;;;;;;;10.00;100.00;100757.63;5982026;28;20032;-71
2024/01/24 12:36:33;;;;;;;19.73;2.63;;;;;;;10.02;100.00;100778.72;6118374;28;20863;-70
2024/01/24 12:39:32;;;;;;;8.73;2.13;;;;;;;10.06;100.00;100745.63;6120607;28;20036;-71
2024/01/24 12:42:27;;;;;;;14.20;2.95;;;;;;;9.99;100.00;100771.03;6121373;28;20055;-71
2024/01/24 12:45:24;;;;;;;10.33;2.70;;;;;;;10.01;100.00;100780.50;6118663;28;20029;-70
2024/01/24 12:48:20;;;;;;;19.17;2.67;;;;;;;9.95;100.00;100791.66;6122643;28;20043;-70
2024/01/24 12:51:15;;;;;;;16.23;2.75;;;;;;;9.83;100.00;100778.72;6118886;28;20016;-71
2024/01/24 12:54:11;;;;;;;17.80;2.28;;;;;;;9.64;100.00;100776.06;6121329;28;20032;-71
2024/01/24 12:57:06;;;;;;;18.67;2.30;;;;;;;9.47;100.00;100780.22;6119742;28;20033;-70
2024/01/24 13:00:05;;;;;;;14.07;2.83;;;;;;;9.50;100.00;100799.31;6118948;28;20021;-70
2024/01/24 13:03:02;;;;;;;20.67;3.25;;;;;;;9.55;100.00;100812.13;6123021;28;20429;-71
2024/01/24 13:05:58;;;;;;;16.00;3.13;;;;;;;9.49;100.00;100802.94;6118271;28;20130;-72
2024/01/24 13:08:53;;;;;;;13.17;2.90;;;;;;;9.49;100.00;100804.72;6124046;28;20052;-72
2024/01/24 13:11:49;;;;;;;18.03;2.37;;;;;;;9.44;100.00;100821.03;6123341;28;20282;-71
2024/01/24 13:14:45;;;;;;;19.17;3.72;;;;;;;9.47;100.00;100815.47;6124124;28;20560;-71
2024/01/24 13:17:40;;;;;;;14.20;2.77;;;;;;;9.47;100.00;100819.91;6121636;28;20036;-70
2024/01/24 13:20:36;;;;;;;12.50;2.73;;;;;;;9.50;100.00;100831.09;6121391;28;20020;-70
2024/01/24 13:23:31;;;;;;;18.52;2.58;;;;;;;9.32;100.00;100830.03;6117163;28;20028;-70
2024/01/24 13:26:26;;;;;;;21.77;2.60;;;;;;;9.28;100.00;100828.66;6118668;28;20356;-70
2024/01/24 13:29:21;;;;;;;12.97;3.13;;;;;;;9.18;100.00;100835.72;6117263;28;20025;-71